sensor_id;sensor_type;location;lat;lon;timestamp;temperature;humidity
54558;DHT22;40452;50.080;20.040;2023-04-29T04:50:44;21.20;39.80
54558;DHT22;40452;50.080;20.040;2023-04-29T04:53:13;21.20;39.40
54558;DHT22;40452;50.080;20.040;2023-04-29T04:55:39;21.20;39.60
54558;DHT22;40452;50.080;20.040;2023-04-29T04:58:04;21.20;39.80
54558;DHT22;40452;50.080;20.040;2023-04-29T05:00:29;21.30;40.20
54558;DHT22;40452;50.080;20.040;2023-04-29T05:03:01;21.20;39.90
54558;DHT22;40452;50.080;20.040;2023-04-29T05:05:32;21.20;39.80
54558;DHT22;40452;50.080;20.040;2023-04-29T05:07:57;21.20;39.80
54558;DHT22;40452;50.080;20.040;2023-04-29T05:10:23;21.20;39.00
54558;DHT22;40452;50.080;20.040;2023-04-29T05:12:51;21.20;39.50
54558;DHT22;40452;50.080;20.040;2023-04-29T05:15:16;21.20;39.80
54558;DHT22;40452;50.080;20.040;2023-04-29T05:17:44;21.20;39.70
54558;DHT22;40452;50.080;20.040;2023-04-29T05:20:10;21.20;39.80
54558;DHT22;40452;50.080;20.040;2023-04-29T05:22:36;21.20;39.80
54558;DHT22;40452;50.080;20.040;2023-04-29T05:25:01;21.20;39.90
54558;DHT22;40452;50.080;20.040;2023-04-29T05:27:27;21.20;39.90
54558;DHT22;40452;50.080;20.040;2023-04-29T05:29:52;21.20;40.00
54558;DHT22;40452;50.080;20.040;2023-04-29T05:32:18;21.20;40.10
54558;DHT22;40452;50.080;20.040;2023-04-29T05:34:43;21.20;40.20
54558;DHT22;40452;50.080;20.040;2023-04-29T05:37:09;21.20;40.20
54558;DHT22;40452;50.080;20.040;2023-04-29T05:39:37;21.20;40.30
54558;DHT22;40452;50.080;20.040;2023-04-29T05:42:03;21.20;40.50
54558;DHT22;40452;50.080;20.040;2023-04-29T05:44:28;21.20;40.80
54558;DHT22;40452;50.080;20.040;2023-04-29T05:46:54;21.20;41.00
54558;DHT22;40452;50.080;20.040;2023-04-29T05:49:19;21.30;41.20
54558;DHT22;40452;50.080;20.040;2023-04-29T05:51:45;21.30;41.40
54558;DHT22;40452;50.080;20.040;2023-04-29T05:54:10;21.30;41.50
54558;DHT22;40452;50.080;20.040;2023-04-29T05:56:36;21.30;41.70
54558;DHT22;40452;50.080;20.040;2023-04-29T05:59:02;21.30;41.70
54558;DHT22;40452;50.080;20.040;2023-04-29T06:01:28;21.30;41.70
54558;DHT22;40452;50.080;20.040;2023-04-29T06:03:53;21.30;41.80
54558;DHT22;40452;50.080;20.040;2023-04-29T06:06:19;21.30;41.80
54558;DHT22;40452;50.080;20.040;2023-04-29T06:08:45;21.30;41.80
54558;DHT22;40452;50.080;20.040;2023-04-29T06:11:10;21.30;41.80
54558;DHT22;40452;50.080;20.040;2023-04-29T06:13:36;21.20;41.70
54558;DHT22;40452;50.080;20.040;2023-04-29T06:16:02;21.30;41.70
54558;DHT22;40452;50.080;20.040;2023-04-29T06:18:27;21.30;41.70
54558;DHT22;40452;50.080;20.040;2023-04-29T06:20:53;21.30;41.80
54558;DHT22;40452;50.080;20.040;2023-04-29T06:23:18;21.30;41.90
54558;DHT22;40452;50.080;20.040;2023-04-29T06:25:44;21.30;42.60
54558;DHT22;40452;50.080;20.040;2023-04-29T06:28:09;21.30;41.90
54558;DHT22;40452;50.080;20.040;2023-04-29T06:30:35;21.30;41.90
54558;DHT22;40452;50.080;20.040;2023-04-29T06:33:00;21.30;42.00
54558;DHT22;40452;50.080;20.040;2023-04-29T06:35:26;21.40;42.00
54558;DHT22;40452;50.080;20.040;2023-04-29T06:37:51;21.40;42.10
54558;DHT22;40452;50.080;20.040;2023-04-29T06:40:17;21.40;42.10
54558;DHT22;40452;50.080;20.040;2023-04-29T06:42:43;21.40;42.30
54558;DHT22;40452;50.080;20.040;2023-04-29T06:45:09;21.40;42.50
54558;DHT22;40452;50.080;20.040;2023-04-29T06:47:35;21.40;42.20
54558;DHT22;40452;50.080;20.040;2023-04-29T06:50:00;21.50;42.20
54558;DHT22;40452;50.080;20.040;2023-04-29T06:52:26;21.40;42.10
54558;DHT22;40452;50.080;20.040;2023-04-29T06:54:51;21.50;42.20
54558;DHT22;40452;50.080;20.040;2023-04-29T06:57:17;21.50;42.10
54558;DHT22;40452;50.080;20.040;2023-04-29T06:59:42;21.50;42.70
54558;DHT22;40452;50.080;20.040;2023-04-29T07:02:08;21.50;42.30
54558;DHT22;40452;50.080;20.040;2023-04-29T07:04:34;21.50;42.20
54558;DHT22;40452;50.080;20.040;2023-04-29T07:07:01;21.60;42.20
54558;DHT22;40452;50.080;20.040;2023-04-29T07:09:28;21.60;42.20
54558;DHT22;40452;50.080;20.040;2023-04-29T07:11:53;21.60;42.10
54558;DHT22;40452;50.080;20.040;2023-04-29T07:14:19;21.60;42.20
54558;DHT22;40452;50.080;20.040;2023-04-29T07:16:46;21.60;42.00
54558;DHT22;40452;50.080;20.040;2023-04-29T07:19:12;21.70;42.10
54558;DHT22;40452;50.080;20.040;2023-04-29T07:21:37;21.70;42.10
54558;DHT22;40452;50.080;20.040;2023-04-29T07:24:03;21.70;42.20
54558;DHT22;40452;50.080;20.040;2023-04-29T07:26:29;21.70;42.20
54558;DHT22;40452;50.080;20.040;2023-04-29T07:28:55;21.70;42.30
54558;DHT22;40452;50.080;20.040;2023-04-29T07:31:21;21.70;42.40
54558;DHT22;40452;50.080;20.040;2023-04-29T07:33:46;21.80;42.30
54558;DHT22;40452;50.080;20.040;2023-04-29T07:36:13;21.80;42.00
54558;DHT22;40452;50.080;20.040;2023-04-29T07:38:38;21.70;41.90
54558;DHT22;40452;50.080;20.040;2023-04-29T07:41:04;21.70;41.50
54558;DHT22;40452;50.080;20.040;2023-04-29T07:43:30;21.70;41.50
54558;DHT22;40452;50.080;20.040;2023-04-29T07:45:55;21.70;41.60
54558;DHT22;40452;50.080;20.040;2023-04-29T07:48:21;21.70;42.30
54558;DHT22;40452;50.080;20.040;2023-04-29T07:50:46;21.70;41.70
54558;DHT22;40452;50.080;20.040;2023-04-29T07:53:12;21.70;41.60
54558;DHT22;40452;50.080;20.040;2023-04-29T07:55:38;21.70;41.70
54558;DHT22;40452;50.080;20.040;2023-04-29T07:58:03;21.70;41.70
54558;DHT22;40452;50.080;20.040;2023-04-29T08:00:29;21.70;41.60
54558;DHT22;40452;50.080;20.040;2023-04-29T08:02:55;21.80;41.70
54558;DHT22;40452;50.080;20.040;2023-04-29T08:05:22;21.80;41.60
54558;DHT22;40452;50.080;20.040;2023-04-29T08:07:48;21.80;41.70
54558;DHT22;40452;50.080;20.040;2023-04-29T08:10:14;21.80;41.70
54558;DHT22;40452;50.080;20.040;2023-04-29T08:12:40;21.80;41.70
54558;DHT22;40452;50.080;20.040;2023-04-29T08:15:06;21.90;41.80
54558;DHT22;40452;50.080;20.040;2023-04-29T08:17:32;21.90;41.70
54558;DHT22;40452;50.080;20.040;2023-04-29T08:19:58;21.90;41.80
54558;DHT22;40452;50.080;20.040;2023-04-29T08:22:23;21.90;41.70
54558;DHT22;40452;50.080;20.040;2023-04-29T08:24:49;21.90;41.80
54558;DHT22;40452;50.080;20.040;2023-04-29T08:27:15;21.90;41.90
54558;DHT22;40452;50.080;20.040;2023-04-29T08:29:41;21.90;41.80
54558;DHT22;40452;50.080;20.040;2023-04-29T08:32:06;21.90;41.80
54558;DHT22;40452;50.080;20.040;2023-04-29T08:34:32;21.90;41.80
54558;DHT22;40452;50.080;20.040;2023-04-29T08:36:58;22.00;41.80
54558;DHT22;40452;50.080;20.040;2023-04-29T08:39:24;21.90;41.80
54558;DHT22;40452;50.080;20.040;2023-04-29T08:41:50;22.00;41.90
54558;DHT22;40452;50.080;20.040;2023-04-29T08:44:16;22.00;41.90
54558;DHT22;40452;50.080;20.040;2023-04-29T08:46:45;22.00;41.90
54558;DHT22;40452;50.080;20.040;2023-04-29T08:49:11;22.00;41.80
54558;DHT22;40452;50.080;20.040;2023-04-29T08:51:37;22.00;41.90
54558;DHT22;40452;50.080;20.040;2023-04-29T08:54:03;22.00;42.20
54558;DHT22;40452;50.080;20.040;2023-04-29T08:56:30;22.00;42.30
54558;DHT22;40452;50.080;20.040;2023-04-29T08:58:56;22.00;43.00
54558;DHT22;40452;50.080;20.040;2023-04-29T09:04:01;22.10;46.00
54558;DHT22;40452;50.080;20.040;2023-04-29T09:06:29;22.00;46.90
54558;DHT22;40452;50.080;20.040;2023-04-29T09:08:58;22.10;47.30
54558;DHT22;40452;50.080;20.040;2023-04-29T09:11:24;22.10;50.80
54558;DHT22;40452;50.080;20.040;2023-04-29T09:13:51;21.50;45.20
54558;DHT22;40452;50.080;20.040;2023-04-29T09:16:22;21.40;43.80
54558;DHT22;40452;50.080;20.040;2023-04-29T09:18:50;21.10;42.20
54558;DHT22;40452;50.080;20.040;2023-04-29T09:21:23;21.00;41.50
54558;DHT22;40452;50.080;20.040;2023-04-29T09:23:51;20.80;41.70
54558;DHT22;40452;50.080;20.040;2023-04-29T09:26:18;20.60;41.30
54558;DHT22;40452;50.080;20.040;2023-04-29T09:28:44;20.60;42.20
54558;DHT22;40452;50.080;20.040;2023-04-29T09:31:11;20.50;41.80
54558;DHT22;40452;50.080;20.040;2023-04-29T09:33:54;20.50;43.20
54558;DHT22;40452;50.080;20.040;2023-04-29T09:36:38;20.50;44.30
54558;DHT22;40452;50.080;20.040;2023-04-29T09:39:08;20.40;43.10
54558;DHT22;40452;50.080;20.040;2023-04-29T09:41:58;20.30;41.90
54558;DHT22;40452;50.080;20.040;2023-04-29T09:44:30;20.20;42.00
54558;DHT22;40452;50.080;20.040;2023-04-29T09:47:01;20.20;42.50
54558;DHT22;40452;50.080;20.040;2023-04-29T09:49:29;20.20;42.10
54558;DHT22;40452;50.080;20.040;2023-04-29T09:52:00;20.10;41.80
54558;DHT22;40452;50.080;20.040;2023-04-29T09:54:27;20.10;42.50
54558;DHT22;40452;50.080;20.040;2023-04-29T09:56:54;20.20;42.90
54558;DHT22;40452;50.080;20.040;2023-04-29T09:59:21;20.20;43.00
54558;DHT22;40452;50.080;20.040;2023-04-29T10:01:52;20.30;44.10
54558;DHT22;40452;50.080;20.040;2023-04-29T10:04:18;20.50;45.90
54558;DHT22;40452;50.080;20.040;2023-04-29T10:06:54;20.70;45.90
54558;DHT22;40452;50.080;20.040;2023-04-29T10:09:21;20.70;48.00
54558;DHT22;40452;50.080;20.040;2023-04-29T10:11:49;20.80;49.90
54558;DHT22;40452;50.080;20.040;2023-04-29T10:14:20;20.90;51.10
54558;DHT22;40452;50.080;20.040;2023-04-29T10:22:26;21.10;53.50
54558;DHT22;40452;50.080;20.040;2023-04-29T10:24:54;21.20;53.20
54558;DHT22;40452;50.080;20.040;2023-04-29T10:27:22;21.30;52.90
54558;DHT22;40452;50.080;20.040;2023-04-29T10:29:49;21.30;53.40
54558;DHT22;40452;50.080;20.040;2023-04-29T10:32:16;21.40;53.20
54558;DHT22;40452;50.080;20.040;2023-04-29T10:34:43;21.40;52.90
54558;DHT22;40452;50.080;20.040;2023-04-29T10:37:10;21.40;53.10
54558;DHT22;40452;50.080;20.040;2023-04-29T10:39:58;21.40;52.30
54558;DHT22;40452;50.080;20.040;2023-04-29T10:42:34;21.40;52.80
54558;DHT22;40452;50.080;20.040;2023-04-29T10:48:07;21.50;52.20
54558;DHT22;40452;50.080;20.040;2023-04-29T10:53:04;21.50;51.90
54558;DHT22;40452;50.080;20.040;2023-04-29T10:55:31;21.50;51.70
54558;DHT22;40452;50.080;20.040;2023-04-29T10:58:00;21.60;51.80
54558;DHT22;40452;50.080;20.040;2023-04-29T11:00:30;21.50;51.30
54558;DHT22;40452;50.080;20.040;2023-04-29T11:02:57;21.60;51.30
54558;DHT22;40452;50.080;20.040;2023-04-29T11:05:34;21.50;51.20
54558;DHT22;40452;50.080;20.040;2023-04-29T11:08:38;21.60;51.70
54558;DHT22;40452;50.080;20.040;2023-04-29T11:11:04;21.60;50.70
54558;DHT22;40452;50.080;20.040;2023-04-29T11:13:31;21.70;50.80
54558;DHT22;40452;50.080;20.040;2023-04-29T11:16:05;21.70;50.50
54558;DHT22;40452;50.080;20.040;2023-04-29T11:18:32;21.70;50.20
54558;DHT22;40452;50.080;20.040;2023-04-29T11:23:37;21.70;50.10
54558;DHT22;40452;50.080;20.040;2023-04-29T11:26:03;21.70;49.90
54558;DHT22;40452;50.080;20.040;2023-04-29T11:28:30;21.70;49.80
54558;DHT22;40452;50.080;20.040;2023-04-29T11:30:56;21.70;49.50
54558;DHT22;40452;50.080;20.040;2023-04-29T11:33:23;21.60;48.10
54558;DHT22;40452;50.080;20.040;2023-04-29T11:35:48;21.60;49.20
54558;DHT22;40452;50.080;20.040;2023-04-29T11:38:14;21.60;49.30
54558;DHT22;40452;50.080;20.040;2023-04-29T11:40:49;21.60;49.20
54558;DHT22;40452;50.080;20.040;2023-04-29T11:43:18;21.60;49.00
54558;DHT22;40452;50.080;20.040;2023-04-29T11:45:47;21.60;48.90
54558;DHT22;40452;50.080;20.040;2023-04-29T11:48:23;21.60;48.80
54558;DHT22;40452;50.080;20.040;2023-04-29T11:50:52;21.60;48.90
54558;DHT22;40452;50.080;20.040;2023-04-29T11:53:20;21.60;48.90
54558;DHT22;40452;50.080;20.040;2023-04-29T11:55:46;21.60;48.80
54558;DHT22;40452;50.080;20.040;2023-04-29T11:58:14;21.60;48.70
54558;DHT22;40452;50.080;20.040;2023-04-29T12:00:40;21.70;48.70
54558;DHT22;40452;50.080;20.040;2023-04-29T12:03:12;21.70;48.60
54558;DHT22;40452;50.080;20.040;2023-04-29T12:05:38;21.70;48.60
54558;DHT22;40452;50.080;20.040;2023-04-29T12:08:06;21.60;48.60
54558;DHT22;40452;50.080;20.040;2023-04-29T12:10:35;21.70;48.60
54558;DHT22;40452;50.080;20.040;2023-04-29T12:13:00;21.70;48.60
54558;DHT22;40452;50.080;20.040;2023-04-29T12:15:26;21.60;48.50
54558;DHT22;40452;50.080;20.040;2023-04-29T12:17:54;21.70;48.50
54558;DHT22;40452;50.080;20.040;2023-04-29T12:20:20;21.70;48.50
54558;DHT22;40452;50.080;20.040;2023-04-29T12:22:46;21.70;48.40
54558;DHT22;40452;50.080;20.040;2023-04-29T12:25:11;21.70;48.40
54558;DHT22;40452;50.080;20.040;2023-04-29T12:27:39;21.70;48.40
54558;DHT22;40452;50.080;20.040;2023-04-29T12:30:10;21.60;48.30
54558;DHT22;40452;50.080;20.040;2023-04-29T12:32:35;21.60;48.20
54558;DHT22;40452;50.080;20.040;2023-04-29T12:35:01;21.70;48.20
54558;DHT22;40452;50.080;20.040;2023-04-29T12:37:27;21.60;48.10
54558;DHT22;40452;50.080;20.040;2023-04-29T12:39:54;21.70;48.20
54558;DHT22;40452;50.080;20.040;2023-04-29T12:42:19;21.70;48.20
54558;DHT22;40452;50.080;20.040;2023-04-29T12:44:45;21.70;48.10
54558;DHT22;40452;50.080;20.040;2023-04-29T12:47:12;21.70;48.10
54558;DHT22;40452;50.080;20.040;2023-04-29T12:49:42;21.70;48.00
54558;DHT22;40452;50.080;20.040;2023-04-29T12:52:08;21.70;48.00
54558;DHT22;40452;50.080;20.040;2023-04-29T12:54:38;21.70;48.00
54558;DHT22;40452;50.080;20.040;2023-04-29T12:57:06;21.70;47.90
54558;DHT22;40452;50.080;20.040;2023-04-29T12:59:31;21.70;47.90
54558;DHT22;40452;50.080;20.040;2023-04-29T13:01:57;21.70;47.90
54558;DHT22;40452;50.080;20.040;2023-04-29T13:04:22;21.70;47.80
54558;DHT22;40452;50.080;20.040;2023-04-29T13:06:48;21.70;47.80
54558;DHT22;40452;50.080;20.040;2023-04-29T13:09:16;21.70;47.70
54558;DHT22;40452;50.080;20.040;2023-04-29T13:11:41;21.70;47.70
54558;DHT22;40452;50.080;20.040;2023-04-29T13:14:07;21.60;47.60
54558;DHT22;40452;50.080;20.040;2023-04-29T13:16:32;21.60;47.60
54558;DHT22;40452;50.080;20.040;2023-04-29T13:18:59;21.60;47.60
54558;DHT22;40452;50.080;20.040;2023-04-29T13:21:25;21.60;47.50
54558;DHT22;40452;50.080;20.040;2023-04-29T13:23:52;21.60;47.60
54558;DHT22;40452;50.080;20.040;2023-04-29T13:26:17;21.60;47.60
54558;DHT22;40452;50.080;20.040;2023-04-29T13:28:43;21.70;47.60
54558;DHT22;40452;50.080;20.040;2023-04-29T13:31:08;21.60;47.60
54558;DHT22;40452;50.080;20.040;2023-04-29T13:33:34;21.60;47.60
54558;DHT22;40452;50.080;20.040;2023-04-29T13:35:59;21.60;47.60
54558;DHT22;40452;50.080;20.040;2023-04-29T13:38:25;21.60;47.60
54558;DHT22;40452;50.080;20.040;2023-04-29T13:40:50;21.60;47.50
54558;DHT22;40452;50.080;20.040;2023-04-29T13:43:16;21.60;47.50
54558;DHT22;40452;50.080;20.040;2023-04-29T13:45:41;21.60;47.40
54558;DHT22;40452;50.080;20.040;2023-04-29T13:48:07;21.60;47.40
54558;DHT22;40452;50.080;20.040;2023-04-29T13:50:32;21.60;47.40
54558;DHT22;40452;50.080;20.040;2023-04-29T13:52:58;21.60;47.40
54558;DHT22;40452;50.080;20.040;2023-04-29T13:55:24;21.60;47.50
54558;DHT22;40452;50.080;20.040;2023-04-29T13:57:49;21.60;47.40
54558;DHT22;40452;50.080;20.040;2023-04-29T14:00:15;21.60;47.60
54558;DHT22;40452;50.080;20.040;2023-04-29T14:02:41;21.60;47.40
54558;DHT22;40452;50.080;20.040;2023-04-29T14:05:07;21.60;47.30
54558;DHT22;40452;50.080;20.040;2023-04-29T14:07:34;21.60;47.40
54558;DHT22;40452;50.080;20.040;2023-04-29T14:10:00;21.60;47.40
54558;DHT22;40452;50.080;20.040;2023-04-29T14:12:28;21.70;47.50
54558;DHT22;40452;50.080;20.040;2023-04-29T14:14:54;21.70;47.50
54558;DHT22;40452;50.080;20.040;2023-04-29T14:17:19;21.60;47.50
54558;DHT22;40452;50.080;20.040;2023-04-29T14:19:45;21.60;47.40
54558;DHT22;40452;50.080;20.040;2023-04-29T14:22:10;21.60;47.50
54558;DHT22;40452;50.080;20.040;2023-04-29T14:24:36;21.70;47.50
54558;DHT22;40452;50.080;20.040;2023-04-29T14:27:03;21.60;47.50
54558;DHT22;40452;50.080;20.040;2023-04-29T14:29:29;21.60;47.50
54558;DHT22;40452;50.080;20.040;2023-04-29T14:31:54;21.60;47.40
54558;DHT22;40452;50.080;20.040;2023-04-29T14:34:21;21.70;47.50
54558;DHT22;40452;50.080;20.040;2023-04-29T14:36:46;21.70;47.50
54558;DHT22;40452;50.080;20.040;2023-04-29T14:39:12;21.70;47.50
54558;DHT22;40452;50.080;20.040;2023-04-29T14:41:38;21.70;47.50
54558;DHT22;40452;50.080;20.040;2023-04-29T14:44:04;21.70;47.70
54558;DHT22;40452;50.080;20.040;2023-04-29T14:46:32;21.70;47.60
54558;DHT22;40452;50.080;20.040;2023-04-29T14:48:58;21.70;47.50
54558;DHT22;40452;50.080;20.040;2023-04-29T14:51:26;21.70;47.50
54558;DHT22;40452;50.080;20.040;2023-04-29T14:53:52;21.70;47.50
54558;DHT22;40452;50.080;20.040;2023-04-29T14:56:18;21.70;47.50
54558;DHT22;40452;50.080;20.040;2023-04-29T14:58:43;21.70;47.60
54558;DHT22;40452;50.080;20.040;2023-04-29T15:01:09;21.70;47.50
54558;DHT22;40452;50.080;20.040;2023-04-29T15:03:34;21.70;47.50
54558;DHT22;40452;50.080;20.040;2023-04-29T15:06:01;21.70;47.50
54558;DHT22;40452;50.080;20.040;2023-04-29T15:08:28;21.70;47.50
54558;DHT22;40452;50.080;20.040;2023-04-29T15:10:53;21.70;47.50
54558;DHT22;40452;50.080;20.040;2023-04-29T15:13:19;21.70;47.50
54558;DHT22;40452;50.080;20.040;2023-04-29T15:15:44;21.70;47.50
54558;DHT22;40452;50.080;20.040;2023-04-29T15:18:10;21.70;47.50
54558;DHT22;40452;50.080;20.040;2023-04-29T15:20:36;21.70;47.50
54558;DHT22;40452;50.080;20.040;2023-04-29T15:23:03;21.70;47.50
54558;DHT22;40452;50.080;20.040;2023-04-29T15:25:29;21.70;47.50
54558;DHT22;40452;50.080;20.040;2023-04-29T15:27:55;21.70;47.50
54558;DHT22;40452;50.080;20.040;2023-04-29T15:30:20;21.70;47.40
54558;DHT22;40452;50.080;20.040;2023-04-29T15:32:46;21.70;47.30
54558;DHT22;40452;50.080;20.040;2023-04-29T15:35:11;21.80;47.30
54558;DHT22;40452;50.080;20.040;2023-04-29T15:37:37;21.80;47.50
54558;DHT22;40452;50.080;20.040;2023-04-29T15:40:03;21.80;47.50
54558;DHT22;40452;50.080;20.040;2023-04-29T15:42:29;21.80;47.10
54558;DHT22;40452;50.080;20.040;2023-04-29T15:44:55;21.80;47.10
54558;DHT22;40452;50.080;20.040;2023-04-29T15:47:21;21.80;47.30
54558;DHT22;40452;50.080;20.040;2023-04-29T15:49:47;21.80;47.30
54558;DHT22;40452;50.080;20.040;2023-04-29T15:52:13;21.80;47.20
54558;DHT22;40452;50.080;20.040;2023-04-29T15:54:39;21.80;46.00
54558;DHT22;40452;50.080;20.040;2023-04-29T15:57:05;21.60;46.50
54558;DHT22;40452;50.080;20.040;2023-04-29T15:59:31;21.70;46.30
54558;DHT22;40452;50.080;20.040;2023-04-29T16:01:56;21.70;45.90
54558;DHT22;40452;50.080;20.040;2023-04-29T16:04:22;21.60;47.00
54558;DHT22;40452;50.080;20.040;2023-04-29T16:06:48;21.70;46.40
54558;DHT22;40452;50.080;20.040;2023-04-29T16:09:13;21.70;46.00
54558;DHT22;40452;50.080;20.040;2023-04-29T16:11:40;21.60;45.80
54558;DHT22;40452;50.080;20.040;2023-04-29T16:14:06;21.70;46.40
54558;DHT22;40452;50.080;20.040;2023-04-29T16:16:31;21.50;46.00
54558;DHT22;40452;50.080;20.040;2023-04-29T16:18:57;21.50;47.10
54558;DHT22;40452;50.080;20.040;2023-04-29T16:21:23;21.30;46.50
54558;DHT22;40452;50.080;20.040;2023-04-29T16:23:50;21.30;46.50
54558;DHT22;40452;50.080;20.040;2023-04-29T16:26:16;21.30;46.50
54558;DHT22;40452;50.080;20.040;2023-04-29T16:28:41;21.20;46.90
54558;DHT22;40452;50.080;20.040;2023-04-29T16:31:07;21.10;47.10
54558;DHT22;40452;50.080;20.040;2023-04-29T16:33:32;21.10;47.30
54558;DHT22;40452;50.080;20.040;2023-04-29T16:35:58;21.00;47.80
54558;DHT22;40452;50.080;20.040;2023-04-29T16:38:24;21.00;48.00
54558;DHT22;40452;50.080;20.040;2023-04-29T16:40:50;21.00;48.20
54558;DHT22;40452;50.080;20.040;2023-04-29T16:43:16;21.00;48.70
54558;DHT22;40452;50.080;20.040;2023-04-29T16:45:42;20.90;48.60
54558;DHT22;40452;50.080;20.040;2023-04-29T16:48:08;20.90;48.80
54558;DHT22;40452;50.080;20.040;2023-04-29T16:50:34;20.90;49.00
54558;DHT22;40452;50.080;20.040;2023-04-29T16:53:03;20.90;49.00
54558;DHT22;40452;50.080;20.040;2023-04-29T16:55:29;20.90;49.00
54558;DHT22;40452;50.080;20.040;2023-04-29T16:57:57;20.80;48.90
54558;DHT22;40452;50.080;20.040;2023-04-29T17:00:23;20.90;48.80
54558;DHT22;40452;50.080;20.040;2023-04-29T17:02:49;21.00;48.70
54558;DHT22;40452;50.080;20.040;2023-04-29T17:05:16;21.10;48.50
54558;DHT22;40452;50.080;20.040;2023-04-29T17:07:43;21.10;48.40
54558;DHT22;40452;50.080;20.040;2023-04-29T17:10:09;21.10;48.40
54558;DHT22;40452;50.080;20.040;2023-04-29T17:12:36;21.10;48.40
54558;DHT22;40452;50.080;20.040;2023-04-29T17:15:01;21.20;48.40
54558;DHT22;40452;50.080;20.040;2023-04-29T17:17:27;21.20;48.40
54558;DHT22;40452;50.080;20.040;2023-04-29T17:19:53;21.20;48.30
54558;DHT22;40452;50.080;20.040;2023-04-29T17:22:19;21.20;48.20
54558;DHT22;40452;50.080;20.040;2023-04-29T17:24:44;21.30;48.30
54558;DHT22;40452;50.080;20.040;2023-04-29T17:27:11;21.30;48.30
54558;DHT22;40452;50.080;20.040;2023-04-29T17:29:36;21.30;48.30
54558;DHT22;40452;50.080;20.040;2023-04-29T17:32:02;21.20;48.20
54558;DHT22;40452;50.080;20.040;2023-04-29T17:34:35;21.40;48.40
54558;DHT22;40452;50.080;20.040;2023-04-29T17:37:02;21.40;48.30
54558;DHT22;40452;50.080;20.040;2023-04-29T17:39:27;21.40;48.20
54558;DHT22;40452;50.080;20.040;2023-04-29T17:41:53;21.40;48.10
54558;DHT22;40452;50.080;20.040;2023-04-29T17:44:19;21.50;48.20
54558;DHT22;40452;50.080;20.040;2023-04-29T17:46:44;21.40;48.10
54558;DHT22;40452;50.080;20.040;2023-04-29T17:49:10;21.50;48.10
54558;DHT22;40452;50.080;20.040;2023-04-29T17:51:36;21.50;48.10
54558;DHT22;40452;50.080;20.040;2023-04-29T17:54:02;21.50;48.10
54558;DHT22;40452;50.080;20.040;2023-04-29T17:56:30;21.50;48.10
54558;DHT22;40452;50.080;20.040;2023-04-29T17:58:56;21.50;48.10
54558;DHT22;40452;50.080;20.040;2023-04-29T18:01:22;21.50;48.20
54558;DHT22;40452;50.080;20.040;2023-04-29T18:03:48;21.60;48.10
54558;DHT22;40452;50.080;20.040;2023-04-29T18:06:15;21.60;48.00
54558;DHT22;40452;50.080;20.040;2023-04-29T18:08:41;21.60;48.00
54558;DHT22;40452;50.080;20.040;2023-04-29T18:11:07;21.60;47.90
54558;DHT22;40452;50.080;20.040;2023-04-29T18:13:33;21.60;47.90
54558;DHT22;40452;50.080;20.040;2023-04-29T18:15:59;21.70;48.00
54558;DHT22;40452;50.080;20.040;2023-04-29T18:18:24;21.60;48.00
54558;DHT22;40452;50.080;20.040;2023-04-29T18:20:50;21.60;47.90
54558;DHT22;40452;50.080;20.040;2023-04-29T18:23:16;21.60;47.90
54558;DHT22;40452;50.080;20.040;2023-04-29T18:25:41;21.60;47.90
54558;DHT22;40452;50.080;20.040;2023-04-29T18:28:07;21.70;47.90
54558;DHT22;40452;50.080;20.040;2023-04-29T18:30:34;21.70;48.00
54558;DHT22;40452;50.080;20.040;2023-04-29T18:33:00;21.70;48.00
54558;DHT22;40452;50.080;20.040;2023-04-29T18:35:26;21.70;48.70
54558;DHT22;40452;50.080;20.040;2023-04-29T18:37:52;21.70;48.00
54558;DHT22;40452;50.080;20.040;2023-04-29T18:40:18;21.70;47.90
54558;DHT22;40452;50.080;20.040;2023-04-29T18:42:43;21.80;48.00
54558;DHT22;40452;50.080;20.040;2023-04-29T18:45:09;21.80;47.90
54558;DHT22;40452;50.080;20.040;2023-04-29T18:47:35;21.80;48.00
54558;DHT22;40452;50.080;20.040;2023-04-29T18:50:00;21.70;47.90
54558;DHT22;40452;50.080;20.040;2023-04-29T18:52:26;21.80;47.90
54558;DHT22;40452;50.080;20.040;2023-04-29T18:54:51;21.80;48.10
54558;DHT22;40452;50.080;20.040;2023-04-29T18:57:17;21.80;48.00
54558;DHT22;40452;50.080;20.040;2023-04-29T18:59:42;21.70;47.90
54558;DHT22;40452;50.080;20.040;2023-04-29T19:02:08;21.80;48.10
54558;DHT22;40452;50.080;20.040;2023-04-29T19:04:34;21.80;48.10
54558;DHT22;40452;50.080;20.040;2023-04-29T19:06:59;21.80;48.10
54558;DHT22;40452;50.080;20.040;2023-04-29T19:09:26;21.80;48.00
54558;DHT22;40452;50.080;20.040;2023-04-29T19:11:53;21.80;48.00
54558;DHT22;40452;50.080;20.040;2023-04-29T19:14:19;21.80;48.10
54558;DHT22;40452;50.080;20.040;2023-04-29T19:16:44;21.80;48.00
54558;DHT22;40452;50.080;20.040;2023-04-29T19:19:10;21.80;48.10
54558;DHT22;40452;50.080;20.040;2023-04-29T19:21:35;21.80;48.00
54558;DHT22;40452;50.080;20.040;2023-04-29T19:24:01;21.70;48.00
54558;DHT22;40452;50.080;20.040;2023-04-29T19:26:27;21.80;48.00
54558;DHT22;40452;50.080;20.040;2023-04-29T19:28:53;21.80;48.10
54558;DHT22;40452;50.080;20.040;2023-04-29T19:31:18;21.80;48.10
54558;DHT22;40452;50.080;20.040;2023-04-29T19:33:44;21.80;48.10
54558;DHT22;40452;50.080;20.040;2023-04-29T19:36:10;21.70;48.00
54558;DHT22;40452;50.080;20.040;2023-04-29T19:38:37;21.80;48.10
54558;DHT22;40452;50.080;20.040;2023-04-29T19:41:02;21.80;48.10
54558;DHT22;40452;50.080;20.040;2023-04-29T19:43:28;21.80;48.10
54558;DHT22;40452;50.080;20.040;2023-04-29T19:45:53;21.80;48.20
54558;DHT22;40452;50.080;20.040;2023-04-29T19:48:19;21.80;48.10
54558;DHT22;40452;50.080;20.040;2023-04-29T19:50:44;21.80;48.20
54558;DHT22;40452;50.080;20.040;2023-04-29T19:53:10;21.80;48.20
54558;DHT22;40452;50.080;20.040;2023-04-29T19:55:36;21.80;48.20
54558;DHT22;40452;50.080;20.040;2023-04-29T19:58:03;21.80;48.10
54558;DHT22;40452;50.080;20.040;2023-04-29T20:00:29;21.90;48.20
54558;DHT22;40452;50.080;20.040;2023-04-29T20:02:55;21.80;48.10
54558;DHT22;40452;50.080;20.040;2023-04-29T20:05:21;21.80;48.10
54558;DHT22;40452;50.080;20.040;2023-04-29T20:07:47;21.80;48.00
54558;DHT22;40452;50.080;20.040;2023-04-29T20:10:13;21.80;48.00
54558;DHT22;40452;50.080;20.040;2023-04-29T20:12:38;21.80;48.00
54558;DHT22;40452;50.080;20.040;2023-04-29T20:15:05;21.80;48.00
54558;DHT22;40452;50.080;20.040;2023-04-29T20:17:30;21.80;47.90